createdAt,value
2023-04-01T00:00:09.394Z,0.61
2023-04-01T00:02:39.113Z,0.40
2023-04-01T00:05:07.053Z,0.58
2023-04-01T00:07:34.138Z,0.57
2023-04-01T00:10:01.052Z,0.55
2023-04-01T00:12:28.160Z,0.53
2023-04-01T00:14:55.018Z,0.52
2023-04-01T00:17:22.513Z,0.50
2023-04-01T00:19:49.680Z,0.34
2023-04-01T00:22:16.787Z,0.47
2023-04-01T00:24:43.690Z,0.46
2023-04-01T00:27:10.985Z,0.45
2023-04-01T00:29:37.901Z,0.43
2023-04-01T00:32:05.099Z,0.42
2023-04-01T00:34:32.304Z,0.42
2023-04-01T00:36:59.596Z,0.40
2023-04-01T00:39:27.449Z,0.38
2023-04-01T00:41:54.606Z,0.37
2023-04-01T00:44:23.525Z,0.35
2023-04-01T00:46:53.542Z,-0.02
2023-04-01T00:49:24.985Z,0.19
2023-04-01T00:51:56.026Z,0.31
2023-04-01T00:54:26.494Z,0.29
2023-04-01T00:57:00.775Z,-0.30
2023-04-01T00:59:48.584Z,0.26
2023-04-01T01:02:16.870Z,0.16
2023-04-01T01:04:43.906Z,0.24
2023-04-01T01:07:27.442Z,0.21
2023-04-01T01:10:34.435Z,0.20
2023-04-01T01:13:07.408Z,-0.16
2023-04-01T01:15:34.415Z,0.16
2023-04-01T01:18:09.945Z,0.15
2023-04-01T01:20:48.953Z,0.12
2023-04-01T01:23:32.095Z,0.12
2023-04-01T01:26:04.889Z,0.08
2023-04-01T01:29:02.949Z,0.08
2023-04-01T01:31:55.889Z,0.07
2023-04-01T01:34:36.712Z,0.03
2023-04-01T01:37:09.118Z,0.04
2023-04-01T01:39:38.517Z,0.03
2023-04-01T01:42:08.738Z,0.00
2023-04-01T01:44:38.669Z,-0.03
2023-04-01T01:47:07.020Z,-0.04
2023-04-01T01:49:36.645Z,-0.09
2023-04-01T01:52:04.705Z,-0.08
2023-04-01T01:54:31.841Z,-0.10
2023-04-01T01:57:08.536Z,-0.48
2023-04-01T01:59:40.994Z,-0.14
2023-04-01T02:02:10.940Z,-0.17
2023-04-01T02:04:44.741Z,-0.18
2023-04-01T02:07:21.842Z,-0.20
2023-04-01T02:09:49.633Z,-0.23
2023-04-01T02:12:18.654Z,-0.23
2023-04-01T02:15:06.334Z,-0.27
2023-04-01T02:17:35.400Z,-0.34
2023-04-01T02:20:15.545Z,-0.42
2023-04-01T02:23:07.272Z,-0.35
2023-04-01T02:25:57.195Z,-0.52
2023-04-01T02:28:45.674Z,-0.84
2023-04-01T02:31:35.593Z,-0.43
2023-04-01T02:34:23.805Z,-0.92
2023-04-01T02:37:11.983Z,-0.53
2023-04-01T02:39:58.904Z,-0.51
2023-04-01T02:42:46.231Z,-0.61
2023-04-01T02:45:34.633Z,-0.59
2023-04-01T02:48:22.057Z,-0.61
2023-04-01T02:51:09.868Z,-0.71
2023-04-01T02:53:56.888Z,-0.69
2023-04-01T02:56:43.826Z,-0.79
2023-04-01T02:59:30.716Z,-0.87
2023-04-01T03:02:17.694Z,-0.79
2023-04-01T03:05:04.720Z,-0.82
2023-04-01T03:07:51.695Z,-0.86
2023-04-01T03:10:39.091Z,-0.90
2023-04-01T03:13:26.176Z,-0.92
2023-04-01T03:16:13.319Z,-1.10
2023-04-01T03:19:00.378Z,-1.01
2023-04-01T03:21:47.290Z,-1.13
2023-04-01T03:24:34.330Z,-1.13
2023-04-01T03:27:21.256Z,-1.17
2023-04-01T03:30:08.335Z,-1.16
2023-04-01T03:33:02.019Z,-1.23
2023-04-01T03:35:51.772Z,-1.42
2023-04-01T03:38:39.798Z,-1.39
2023-04-01T03:41:26.682Z,-1.57
2023-04-01T03:44:14.741Z,-1.35
2023-04-01T03:47:01.990Z,-1.38
2023-04-01T03:49:49.452Z,-1.41
2023-04-01T03:52:36.682Z,-1.45
2023-04-01T03:55:24.498Z,-1.56
2023-04-01T03:58:11.399Z,-1.54
2023-04-01T04:00:58.460Z,-1.62
2023-04-01T04:03:45.605Z,-1.60
2023-04-01T04:06:35.041Z,-1.66
2023-04-01T04:09:22.500Z,-1.67
2023-04-01T04:12:10.096Z,-1.71
2023-04-01T04:14:57.025Z,-1.75
2023-04-01T04:17:44.059Z,-1.79
2023-04-01T04:20:31.109Z,-1.93
2023-04-01T04:23:18.215Z,-2.00
2023-04-01T04:26:19.054Z,-1.90
2023-04-01T04:29:18.507Z,-1.92
2023-04-01T04:32:05.502Z,-1.98
2023-04-01T04:34:53.137Z,-2.21
2023-04-01T04:37:40.302Z,-2.23
2023-04-01T04:40:28.698Z,-2.15
2023-04-01T04:43:15.635Z,-2.08
2023-04-01T04:46:03.439Z,-2.11
2023-04-01T04:48:50.322Z,-2.24
2023-04-01T04:51:39.095Z,-2.15
2023-04-01T04:54:27.001Z,-2.18
2023-04-01T04:57:17.114Z,-2.20
2023-04-01T05:00:11.486Z,-2.20
2023-04-01T05:03:17.492Z,-2.22
2023-04-01T05:06:13.216Z,-2.25
2023-04-01T05:09:01.412Z,-2.27
2023-04-01T05:11:48.302Z,-2.35
2023-04-01T05:14:38.883Z,-2.70
2023-04-01T05:17:33.449Z,-2.79
2023-04-01T05:20:20.954Z,-2.32
2023-04-01T05:23:07.998Z,-2.32
2023-04-01T05:25:55.218Z,-2.81
2023-04-01T05:28:42.284Z,-2.38
2023-04-01T05:31:29.663Z,-2.36
2023-04-01T05:34:18.416Z,-2.32
2023-04-01T05:37:05.982Z,-2.77
2023-04-01T05:39:52.869Z,-2.31
2023-04-01T05:42:39.896Z,-2.42
2023-04-01T05:45:27.526Z,-2.27
2023-04-01T05:48:50.110Z,-2.25
2023-04-01T05:51:37.504Z,-2.39
2023-04-01T05:54:26.189Z,-2.22
2023-04-01T05:57:13.189Z,-2.20
2023-04-01T06:00:00.535Z,-2.20
2023-04-01T06:02:47.596Z,-2.17
2023-04-01T06:05:43.527Z,-2.12
2023-04-01T06:08:34.001Z,-2.19
2023-04-01T06:11:55.958Z,-2.06
2023-04-01T06:15:02.990Z,-2.35
2023-04-01T06:17:50.387Z,-1.98
2023-04-01T06:20:55.924Z,-1.93
2023-04-01T06:24:09.802Z,-1.90
2023-04-01T06:27:12.052Z,-1.87
2023-04-01T06:30:23.725Z,-1.87
2023-04-01T06:33:39.214Z,-2.13
2023-04-01T06:36:45.184Z,-1.75
2023-04-01T06:39:52.422Z,-1.82
2023-04-01T06:42:50.943Z,-1.67
2023-04-01T06:46:03.350Z,-1.61
2023-04-01T06:49:50.256Z,-1.70
2023-04-01T06:52:58.164Z,-1.52
2023-04-01T06:56:08.362Z,-1.56
2023-04-01T06:59:13.819Z,-1.43
2023-04-01T07:02:08.844Z,-1.83
2023-04-01T07:05:01.453Z,-1.40
2023-04-01T07:08:04.547Z,-1.29
2023-04-01T07:11:26.101Z,-1.24
2023-04-01T07:14:55.004Z,-1.18
2023-04-01T07:17:46.723Z,-1.27
2023-04-01T07:20:57.776Z,-1.10
2023-04-01T07:23:49.491Z,-1.04
2023-04-01T07:26:51.424Z,-0.98
2023-04-01T07:29:42.472Z,-0.93
2023-04-01T07:32:37.060Z,-0.88
2023-04-01T07:36:05.309Z,-0.82
2023-04-01T07:39:23.299Z,-1.27
2023-04-01T07:42:41.433Z,-0.71
2023-04-01T07:45:51.006Z,-0.65
2023-04-01T07:48:54.113Z,-0.65
2023-04-01T07:51:57.346Z,-0.56
2023-04-01T07:54:58.906Z,-0.59
2023-04-01T07:58:04.748Z,-0.44
2023-04-01T08:01:08.005Z,-0.36
2023-04-01T08:04:19.582Z,-0.29
2023-04-01T08:07:20.465Z,-0.23
2023-04-01T08:10:52.413Z,-0.12
2023-04-01T08:14:11.699Z,0.00
2023-04-01T08:17:10.692Z,0.08
2023-04-01T08:20:38.834Z,0.15
2023-04-01T08:23:31.998Z,0.21
2023-04-01T08:26:24.905Z,0.26
2023-04-01T08:29:44.459Z,0.33
2023-04-01T08:32:38.123Z,0.38
2023-04-01T08:35:39.374Z,0.35
2023-04-01T08:38:49.889Z,0.49
2023-04-01T08:42:06.515Z,0.56
2023-04-01T08:45:32.693Z,0.63
2023-04-01T08:49:02.117Z,0.70
2023-04-01T08:52:04.753Z,0.77
2023-04-01T08:55:07.554Z,0.83
2023-04-01T08:58:18.763Z,0.90
2023-04-01T09:01:47.477Z,0.99
2023-04-01T09:05:23.832Z,1.08
2023-04-01T09:08:24.379Z,1.15
2023-04-01T09:11:26.414Z,1.23
2023-04-01T09:15:06.914Z,1.34
2023-04-01T09:18:14.027Z,1.44
2023-04-01T09:21:11.251Z,1.56
2023-04-01T09:24:04.233Z,1.66
2023-04-01T09:27:03.685Z,1.78
2023-04-01T09:30:15.409Z,1.92
2023-04-01T09:33:08.677Z,2.04
2023-04-01T09:36:07.760Z,2.19
2023-04-01T09:39:19.781Z,2.34
2023-04-01T09:42:34.679Z,2.50
2023-04-01T09:45:56.728Z,2.68
2023-04-01T09:48:58.907Z,2.83
2023-04-01T09:51:46.254Z,2.97
2023-04-01T09:54:33.755Z,3.11
2023-04-01T09:57:48.192Z,3.28
2023-04-01T10:00:59.582Z,3.46
2023-04-01T10:04:05.537Z,3.64
2023-04-01T10:07:13.329Z,3.84
2023-04-01T10:10:09.858Z,4.00
2023-04-01T10:13:18.841Z,4.17
2023-04-01T10:16:11.967Z,4.32
2023-04-01T10:19:17.878Z,4.51
2023-04-01T10:22:34.367Z,4.67
2023-04-01T10:25:35.252Z,4.86
2023-04-01T10:28:47.232Z,5.01
2023-04-01T10:32:29.863Z,5.21
2023-04-01T10:35:30.219Z,5.31
2023-04-01T10:38:32.854Z,5.55
2023-04-01T10:41:56.690Z,5.70
2023-04-01T10:45:23.030Z,5.89
2023-04-01T10:48:31.149Z,6.04
2023-04-01T10:51:38.297Z,6.20
2023-04-01T10:54:58.663Z,6.34
2023-04-01T10:58:37.232Z,6.52
2023-04-01T11:02:24.017Z,6.70
2023-04-01T11:05:55.261Z,6.84
2023-04-01T11:09:20.040Z,6.85
2023-04-01T11:12:26.561Z,7.15
2023-04-01T11:15:32.673Z,7.27
2023-04-01T11:19:10.171Z,7.39
2023-04-01T11:22:22.209Z,7.54
2023-04-01T11:25:50.993Z,7.66
2023-04-01T11:29:34.861Z,7.80
2023-04-01T11:33:08.844Z,7.92
2023-04-01T11:36:23.225Z,8.06
2023-04-01T11:39:35.949Z,8.17
2023-04-01T11:43:22.994Z,8.28
2023-04-01T11:46:50.558Z,8.43
2023-04-01T11:49:53.816Z,8.55
2023-04-01T11:53:00.922Z,8.69
2023-04-01T11:56:12.448Z,8.78
2023-04-01T11:59:23.231Z,8.90
2023-04-01T12:02:38.602Z,9.01
2023-04-01T12:05:37.301Z,9.11
2023-04-01T12:08:45.776Z,9.22
2023-04-01T12:11:53.524Z,9.34
2023-04-01T12:14:53.210Z,9.41
2023-04-01T12:18:10.112Z,9.54
2023-04-01T12:21:06.106Z,9.64
2023-04-01T12:24:14.731Z,9.73
2023-04-01T12:27:14.162Z,9.84
2023-04-01T12:30:03.856Z,9.93
2023-04-01T12:33:09.040Z,10.02
2023-04-01T12:36:11.498Z,10.10
2023-04-01T12:39:12.707Z,10.19
2023-04-01T12:42:37.032Z,10.26
2023-04-01T12:45:56.023Z,10.34
2023-04-01T12:49:12.870Z,10.36
2023-04-01T12:52:24.387Z,10.43
2023-04-01T12:55:27.210Z,10.39
2023-04-01T12:58:18.166Z,10.51
2023-04-01T13:00:45.521Z,10.54
2023-04-01T13:03:31.632Z,10.60
2023-04-01T13:06:21.392Z,10.65
2023-04-01T13:09:05.789Z,10.69
2023-04-01T13:11:51.317Z,10.73
2023-04-01T13:14:32.145Z,10.78
2023-04-01T13:17:30.589Z,10.81
2023-04-01T13:20:06.590Z,10.81
2023-04-01T13:22:40.969Z,10.80
2023-04-01T13:25:23.354Z,10.76
2023-04-01T13:27:57.621Z,10.59
2023-04-01T13:30:45.571Z,10.75
2023-04-01T13:33:57.491Z,10.75
2023-04-01T13:36:37.249Z,10.72
2023-04-01T13:39:04.361Z,10.68
2023-04-01T13:41:46.648Z,10.64
2023-04-01T13:44:29.071Z,10.59
2023-04-01T13:47:29.556Z,10.28
2023-04-01T13:50:18.282Z,10.50
2023-04-01T13:53:12.921Z,10.47
2023-04-01T13:55:57.224Z,10.43
2023-04-01T13:58:57.450Z,10.35
2023-04-01T14:01:24.692Z,10.38
2023-04-01T14:03:54.696Z,10.36
2023-04-01T14:06:35.476Z,10.08
2023-04-01T14:09:47.719Z,10.23
2023-04-01T14:12:29.825Z,10.18
2023-04-01T14:15:22.541Z,10.17
2023-04-01T14:18:33.811Z,10.08
2023-04-01T14:21:33.014Z,10.13
2023-04-01T14:24:07.171Z,10.12
2023-04-01T14:26:46.644Z,10.08
2023-04-01T14:29:33.775Z,10.05
2023-04-01T14:32:00.867Z,10.01
2023-04-01T14:34:43.292Z,9.95
2023-04-01T14:37:55.332Z,9.90
2023-04-01T14:40:58.399Z,9.87
2023-04-01T14:43:48.081Z,9.85
2023-04-01T14:46:49.112Z,9.81
2023-04-01T14:49:34.595Z,9.77
2023-04-01T14:52:26.210Z,9.44
2023-04-01T14:54:54.093Z,9.65
2023-04-01T14:57:26.455Z,9.58
2023-04-01T14:59:53.513Z,9.54
2023-04-01T15:02:38.738Z,9.47
2023-04-01T15:05:08.967Z,9.42
2023-04-01T15:07:53.132Z,9.37
2023-04-01T15:10:39.749Z,9.32
2023-04-01T15:13:24.595Z,9.29
2023-04-01T15:16:13.574Z,9.22
2023-04-01T15:19:08.887Z,9.17
2023-04-01T15:22:20.988Z,9.12
2023-04-01T15:24:58.877Z,9.08
2023-04-01T15:27:32.201Z,9.04
2023-04-01T15:30:19.109Z,8.99
2023-04-01T15:33:05.096Z,8.95
2023-04-01T15:35:35.346Z,8.78
2023-04-01T15:38:05.992Z,8.83
2023-04-01T15:41:09.700Z,8.78
2023-04-01T15:43:49.860Z,8.72
2023-04-01T15:46:48.877Z,8.67
2023-04-01T15:49:35.188Z,8.60
2023-04-01T15:53:01.096Z,8.55
2023-04-01T15:55:38.759Z,8.51
2023-04-01T15:58:25.186Z,8.48
2023-04-01T16:01:04.368Z,8.19
2023-04-01T16:03:43.766Z,8.41
2023-04-01T16:06:25.745Z,8.36
2023-04-01T16:09:11.932Z,8.33
2023-04-01T16:11:52.112Z,8.28
2023-04-01T16:14:54.517Z,8.24
2023-04-01T16:17:52.308Z,8.19
2023-04-01T16:20:47.628Z,8.13
2023-04-01T16:23:36.542Z,8.05
2023-04-01T16:26:41.239Z,8.08
2023-04-01T16:29:24.312Z,8.02
2023-04-01T16:32:24.239Z,7.96
2023-04-01T16:35:16.827Z,7.87
2023-04-01T16:38:01.577Z,7.88
2023-04-01T16:41:02.135Z,7.82
2023-04-01T16:43:43.377Z,7.77
2023-04-01T16:46:36.573Z,7.73
2023-04-01T16:49:12.723Z,7.68
2023-04-01T16:51:48.380Z,7.64
2023-04-01T16:54:21.134Z,7.60
2023-04-01T16:56:56.299Z,7.57
2023-04-01T16:59:27.536Z,7.52
2023-04-01T17:02:03.503Z,7.49
2023-04-01T17:04:40.901Z,7.45
2023-04-01T17:07:46.681Z,7.42
2023-04-01T17:11:00.224Z,7.36
2023-04-01T17:14:13.182Z,7.19
2023-04-01T17:17:03.550Z,7.23
2023-04-01T17:19:46.346Z,7.15
2023-04-01T17:22:28.274Z,7.09
2023-04-01T17:25:32.340Z,7.02
2023-04-01T17:28:03.001Z,6.95
2023-04-01T17:30:51.281Z,6.87
2023-04-01T17:33:30.632Z,6.81
2023-04-01T17:36:08.236Z,6.68
2023-04-01T17:38:56.490Z,6.63
2023-04-01T17:41:48.853Z,6.53
2023-04-01T17:44:36.282Z,6.42
2023-04-01T17:47:23.535Z,6.31
2023-04-01T17:49:54.359Z,6.23
2023-04-01T17:52:24.184Z,6.16
2023-04-01T17:54:51.066Z,6.08
2023-04-01T17:57:41.729Z,5.98
2023-04-01T18:00:25.199Z,5.87
2023-04-01T18:03:22.322Z,5.83
2023-04-01T18:05:55.118Z,5.76
2023-04-01T18:08:41.204Z,5.64
2023-04-01T18:11:40.568Z,5.54
2023-04-01T18:14:46.250Z,5.50
2023-04-01T18:17:18.802Z,5.43
2023-04-01T18:20:23.430Z,5.35
2023-04-01T18:22:56.814Z,5.19
2023-04-01T18:25:28.167Z,5.22
2023-04-01T18:28:22.058Z,5.15
2023-04-01T18:31:29.075Z,5.03
2023-04-01T18:34:41.043Z,4.98
2023-04-01T18:37:29.125Z,4.90
2023-04-01T18:40:14.002Z,4.83
2023-04-01T18:43:05.894Z,4.75
2023-04-01T18:45:38.606Z,4.68
2023-04-01T18:48:38.686Z,4.61
2023-04-01T18:51:16.039Z,4.50
2023-04-01T18:53:49.248Z,4.50
2023-04-01T18:56:51.898Z,4.40
2023-04-01T18:59:30.242Z,4.38
2023-04-01T19:02:08.222Z,4.31
2023-04-01T19:04:43.474Z,4.26
2023-04-01T19:07:34.746Z,4.20
2023-04-01T19:10:13.267Z,4.14
2023-04-01T19:13:07.946Z,4.07
2023-04-01T19:15:45.393Z,4.02
2023-04-01T19:18:36.496Z,3.98
2023-04-01T19:21:18.569Z,3.90
2023-04-01T19:24:09.929Z,3.86
2023-04-01T19:26:36.941Z,3.82
2023-04-01T19:29:19.159Z,3.77
2023-04-01T19:31:52.282Z,3.70
2023-04-01T19:35:01.531Z,3.66
2023-04-01T19:37:46.017Z,3.56
2023-04-01T19:40:46.184Z,3.51
2023-04-01T19:43:39.829Z,3.49
2023-04-01T19:46:37.882Z,3.44
2023-04-01T19:49:31.576Z,3.40
2023-04-01T19:52:15.669Z,3.32
2023-04-01T19:54:45.583Z,3.29
2023-04-01T19:57:31.443Z,3.25
2023-04-01T20:00:07.615Z,3.21
2023-04-01T20:02:45.698Z,3.17
2023-04-01T20:05:51.834Z,3.11
2023-04-01T20:08:50.760Z,2.70
2023-04-01T20:11:36.233Z,3.02
2023-04-01T20:14:11.686Z,2.97
2023-04-01T20:17:02.024Z,2.82
2023-04-01T20:19:35.903Z,2.90
2023-04-01T20:22:10.832Z,2.84
2023-04-01T20:24:47.664Z,2.79
2023-04-01T20:27:14.933Z,2.75
2023-04-01T20:29:47.691Z,2.71
2023-04-01T20:32:33.353Z,2.66
2023-04-01T20:35:07.015Z,2.63
2023-04-01T20:37:41.032Z,2.54
2023-04-01T20:40:34.457Z,2.55
2023-04-01T20:43:22.884Z,2.49
2023-04-01T20:45:56.453Z,2.45
2023-04-01T20:48:41.596Z,2.34
2023-04-01T20:51:23.249Z,2.37
2023-04-01T20:53:54.718Z,2.31
2023-04-01T20:56:30.147Z,2.29
2023-04-01T20:59:26.684Z,2.24
2023-04-01T21:02:29.099Z,2.13
2023-04-01T21:05:26.656Z,2.14
2023-04-01T21:08:04.115Z,1.94
2023-04-01T21:10:41.730Z,2.06
2023-04-01T21:13:31.080Z,2.02
2023-04-01T21:16:44.309Z,1.98
2023-04-01T21:19:11.363Z,1.93
2023-04-01T21:21:51.330Z,1.90
2023-04-01T21:24:33.066Z,1.85
2023-04-01T21:27:23.465Z,1.81
2023-04-01T21:30:21.063Z,1.77
2023-04-01T21:32:57.633Z,1.67
2023-04-01T21:35:45.904Z,1.70
2023-04-01T21:38:12.883Z,1.67
2023-04-01T21:40:48.810Z,1.63
2023-04-01T21:43:37.200Z,1.62
2023-04-01T21:46:13.088Z,1.56
2023-04-01T21:48:59.735Z,1.54
2023-04-01T21:51:56.302Z,1.48
2023-04-01T21:54:29.065Z,1.46
2023-04-01T21:57:07.975Z,1.42
2023-04-01T22:00:00.988Z,1.38
2023-04-01T22:02:36.594Z,1.36
2023-04-01T22:05:18.024Z,1.33
2023-04-01T22:08:10.679Z,1.21
2023-04-01T22:10:46.991Z,1.26
2023-04-01T22:13:39.792Z,1.21
2023-04-01T22:16:23.187Z,1.18
2023-04-01T22:19:21.070Z,1.15
2023-04-01T22:22:07.126Z,1.11
2023-04-01T22:24:46.117Z,1.09
2023-04-01T22:27:26.109Z,1.07
2023-04-01T22:30:16.388Z,0.99
2023-04-01T22:32:47.919Z,1.02
2023-04-01T22:35:16.279Z,0.98
2023-04-01T22:38:22.024Z,0.95
2023-04-01T22:41:16.758Z,0.93
2023-04-01T22:43:45.759Z,0.90
2023-04-01T22:46:38.229Z,0.87
2023-04-01T22:49:17.691Z,0.85
2023-04-01T22:52:17.961Z,0.82
2023-04-01T22:54:50.177Z,0.58
2023-04-01T22:57:38.413Z,0.80
2023-04-01T23:00:11.120Z,0.75
2023-04-01T23:02:44.994Z,0.36
2023-04-01T23:05:16.928Z,0.51
2023-04-01T23:08:03.886Z,0.70
2023-04-01T23:10:50.701Z,0.68
2023-04-01T23:13:39.045Z,0.31
2023-04-01T23:16:07.861Z,0.64
2023-04-01T23:18:37.945Z,0.62
2023-04-01T23:21:22.450Z,0.60
2023-04-01T23:24:16.866Z,0.58
2023-04-01T23:27:13.929Z,0.29
2023-04-01T23:29:41.085Z,0.53
2023-04-01T23:32:17.837Z,0.41
2023-04-01T23:34:51.026Z,0.48
2023-04-01T23:37:20.352Z,0.46
2023-04-01T23:39:53.276Z,0.43
2023-04-01T23:42:27.148Z,0.39
2023-04-01T23:44:59.380Z,0.25
2023-04-01T23:47:38.894Z,0.39
2023-04-01T23:50:17.435Z,0.35
2023-04-01T23:52:50.119Z,0.33
2023-04-01T23:55:33.984Z,0.30
2023-04-01T23:58:27.450Z,0.27
